sensor_id;sensor_type;location;lat;lon;timestamp;temperature;humidity
22249;DHT22;67538;52.180;5.646;2023-05-15T00:00:50;11.40;99.90
22249;DHT22;67538;52.180;5.646;2023-05-15T00:03:17;11.40;99.90
22249;DHT22;67538;52.180;5.646;2023-05-15T00:05:44;11.50;99.90
22249;DHT22;67538;52.180;5.646;2023-05-15T00:08:11;11.50;99.90
22249;DHT22;67538;52.180;5.646;2023-05-15T00:10:38;11.50;99.90
22249;DHT22;67538;52.180;5.646;2023-05-15T00:13:05;11.40;99.90
22249;DHT22;67538;52.180;5.646;2023-05-15T00:15:32;11.40;99.90
22249;DHT22;67538;52.180;5.646;2023-05-15T00:18:00;11.40;99.90
22249;DHT22;67538;52.180;5.646;2023-05-15T00:20:27;11.30;99.90
22249;DHT22;67538;52.180;5.646;2023-05-15T00:22:54;11.30;99.90
22249;DHT22;67538;52.180;5.646;2023-05-15T00:25:22;11.30;99.90
22249;DHT22;67538;52.180;5.646;2023-05-15T00:27:50;11.30;99.90
22249;DHT22;67538;52.180;5.646;2023-05-15T00:30:17;11.20;99.90
22249;DHT22;67538;52.180;5.646;2023-05-15T00:32:44;11.20;99.90
22249;DHT22;67538;52.180;5.646;2023-05-15T00:35:12;11.20;99.90
22249;DHT22;67538;52.180;5.646;2023-05-15T00:37:39;11.20;99.90
22249;DHT22;67538;52.180;5.646;2023-05-15T00:40:09;11.20;99.90
22249;DHT22;67538;52.180;5.646;2023-05-15T00:42:36;11.20;99.90
22249;DHT22;67538;52.180;5.646;2023-05-15T00:45:05;11.20;99.90
22249;DHT22;67538;52.180;5.646;2023-05-15T00:47:33;11.10;99.90
22249;DHT22;67538;52.180;5.646;2023-05-15T00:50:01;11.10;99.90
22249;DHT22;67538;52.180;5.646;2023-05-15T00:52:30;11.10;99.90
22249;DHT22;67538;52.180;5.646;2023-05-15T00:54:57;11.00;99.90
22249;DHT22;67538;52.180;5.646;2023-05-15T00:57:26;11.00;99.90
22249;DHT22;67538;52.180;5.646;2023-05-15T00:59:54;10.90;99.90
22249;DHT22;67538;52.180;5.646;2023-05-15T01:02:22;10.90;99.90
22249;DHT22;67538;52.180;5.646;2023-05-15T01:04:49;10.90;99.90
22249;DHT22;67538;52.180;5.646;2023-05-15T01:07:16;10.90;99.90
22249;DHT22;67538;52.180;5.646;2023-05-15T01:09:46;10.90;99.90
22249;DHT22;67538;52.180;5.646;2023-05-15T01:12:16;10.80;99.90
22249;DHT22;67538;52.180;5.646;2023-05-15T01:14:44;10.80;99.90
22249;DHT22;67538;52.180;5.646;2023-05-15T01:17:20;10.80;99.90
22249;DHT22;67538;52.180;5.646;2023-05-15T01:19:49;10.90;99.90
22249;DHT22;67538;52.180;5.646;2023-05-15T01:22:33;10.90;99.90
22249;DHT22;67538;52.180;5.646;2023-05-15T01:25:40;10.80;99.90
22249;DHT22;67538;52.180;5.646;2023-05-15T01:30:42;10.80;99.90
22249;DHT22;67538;52.180;5.646;2023-05-15T01:33:16;10.70;99.90
22249;DHT22;67538;52.180;5.646;2023-05-15T01:35:47;10.70;99.90
22249;DHT22;67538;52.180;5.646;2023-05-15T01:38:23;10.60;99.90
22249;DHT22;67538;52.180;5.646;2023-05-15T01:40:58;10.60;99.90
22249;DHT22;67538;52.180;5.646;2023-05-15T01:43:31;10.60;99.90
22249;DHT22;67538;52.180;5.646;2023-05-15T01:45:58;10.50;99.90
22249;DHT22;67538;52.180;5.646;2023-05-15T01:48:27;10.40;99.90
22249;DHT22;67538;52.180;5.646;2023-05-15T01:51:01;10.40;99.90
22249;DHT22;67538;52.180;5.646;2023-05-15T01:53:31;10.30;99.90
22249;DHT22;67538;52.180;5.646;2023-05-15T01:55:59;10.30;99.90
22249;DHT22;67538;52.180;5.646;2023-05-15T01:58:28;10.20;99.90
22249;DHT22;67538;52.180;5.646;2023-05-15T02:00:57;10.20;99.90
22249;DHT22;67538;52.180;5.646;2023-05-15T02:03:25;10.20;99.90
22249;DHT22;67538;52.180;5.646;2023-05-15T02:05:52;10.20;99.90
22249;DHT22;67538;52.180;5.646;2023-05-15T02:08:22;10.20;99.90
22249;DHT22;67538;52.180;5.646;2023-05-15T02:10:51;10.20;99.90
22249;DHT22;67538;52.180;5.646;2023-05-15T02:13:19;10.20;99.90
22249;DHT22;67538;52.180;5.646;2023-05-15T02:15:48;10.00;99.90
22249;DHT22;67538;52.180;5.646;2023-05-15T02:18:15;9.90;99.90
22249;DHT22;67538;52.180;5.646;2023-05-15T02:20:43;9.90;99.90
22249;DHT22;67538;52.180;5.646;2023-05-15T02:23:10;9.80;99.90
22249;DHT22;67538;52.180;5.646;2023-05-15T02:25:43;9.80;99.90
22249;DHT22;67538;52.180;5.646;2023-05-15T02:28:19;9.80;99.90
22249;DHT22;67538;52.180;5.646;2023-05-15T02:30:57;9.90;99.90
22249;DHT22;67538;52.180;5.646;2023-05-15T02:33:30;9.90;99.90
22249;DHT22;67538;52.180;5.646;2023-05-15T02:36:04;10.00;99.90
22249;DHT22;67538;52.180;5.646;2023-05-15T02:38:34;10.10;99.90
22249;DHT22;67538;52.180;5.646;2023-05-15T02:41:04;10.20;99.90
22249;DHT22;67538;52.180;5.646;2023-05-15T02:43:32;10.20;99.90
22249;DHT22;67538;52.180;5.646;2023-05-15T02:46:02;10.30;99.90
22249;DHT22;67538;52.180;5.646;2023-05-15T02:48:32;10.30;99.90
22249;DHT22;67538;52.180;5.646;2023-05-15T02:50:59;10.40;99.90
22249;DHT22;67538;52.180;5.646;2023-05-15T02:53:27;10.50;99.90
22249;DHT22;67538;52.180;5.646;2023-05-15T02:55:55;10.50;99.90
22249;DHT22;67538;52.180;5.646;2023-05-15T02:58:22;10.60;99.90
22249;DHT22;67538;52.180;5.646;2023-05-15T03:00:49;10.70;99.90
22249;DHT22;67538;52.180;5.646;2023-05-15T03:03:17;10.70;99.90
22249;DHT22;67538;52.180;5.646;2023-05-15T03:05:44;10.70;99.90
22249;DHT22;67538;52.180;5.646;2023-05-15T03:08:11;10.80;99.90
22249;DHT22;67538;52.180;5.646;2023-05-15T03:10:38;10.80;99.90
22249;DHT22;67538;52.180;5.646;2023-05-15T03:13:05;10.90;99.90
22249;DHT22;67538;52.180;5.646;2023-05-15T03:15:32;10.90;99.90
22249;DHT22;67538;52.180;5.646;2023-05-15T03:17:59;10.90;99.90
22249;DHT22;67538;52.180;5.646;2023-05-15T03:20:28;10.90;99.90
22249;DHT22;67538;52.180;5.646;2023-05-15T03:22:55;10.90;99.90
22249;DHT22;67538;52.180;5.646;2023-05-15T03:25:22;10.90;99.90
22249;DHT22;67538;52.180;5.646;2023-05-15T03:27:49;10.80;99.90
22249;DHT22;67538;52.180;5.646;2023-05-15T03:30:16;10.80;99.90
22249;DHT22;67538;52.180;5.646;2023-05-15T03:32:43;10.80;99.90
22249;DHT22;67538;52.180;5.646;2023-05-15T03:35:11;10.80;99.90
22249;DHT22;67538;52.180;5.646;2023-05-15T03:37:39;10.80;99.90
22249;DHT22;67538;52.180;5.646;2023-05-15T03:40:07;10.80;99.90
22249;DHT22;67538;52.180;5.646;2023-05-15T03:42:34;10.80;99.90
22249;DHT22;67538;52.180;5.646;2023-05-15T03:45:01;10.80;99.90
22249;DHT22;67538;52.180;5.646;2023-05-15T03:47:28;10.90;99.90
22249;DHT22;67538;52.180;5.646;2023-05-15T03:49:55;10.90;99.90
22249;DHT22;67538;52.180;5.646;2023-05-15T03:52:22;10.90;99.90
22249;DHT22;67538;52.180;5.646;2023-05-15T03:54:51;10.90;99.90
22249;DHT22;67538;52.180;5.646;2023-05-15T03:57:18;10.80;99.90
22249;DHT22;67538;52.180;5.646;2023-05-15T03:59:45;10.80;99.90
22249;DHT22;67538;52.180;5.646;2023-05-15T04:02:12;10.80;99.90
22249;DHT22;67538;52.180;5.646;2023-05-15T04:04:39;10.80;99.90
22249;DHT22;67538;52.180;5.646;2023-05-15T04:07:06;10.80;99.90
22249;DHT22;67538;52.180;5.646;2023-05-15T04:09:33;10.80;99.90
22249;DHT22;67538;52.180;5.646;2023-05-15T04:12:02;10.80;99.90
22249;DHT22;67538;52.180;5.646;2023-05-15T04:14:29;10.90;99.90
22249;DHT22;67538;52.180;5.646;2023-05-15T04:16:56;10.90;99.90
22249;DHT22;67538;52.180;5.646;2023-05-15T04:19:23;10.90;99.90
22249;DHT22;67538;52.180;5.646;2023-05-15T04:21:50;10.90;99.90
22249;DHT22;67538;52.180;5.646;2023-05-15T04:24:17;11.00;99.90
22249;DHT22;67538;52.180;5.646;2023-05-15T04:26:44;11.00;99.90
22249;DHT22;67538;52.180;5.646;2023-05-15T04:29:12;11.00;99.90
22249;DHT22;67538;52.180;5.646;2023-05-15T04:31:39;11.00;99.90
22249;DHT22;67538;52.180;5.646;2023-05-15T04:34:06;11.10;99.90
22249;DHT22;67538;52.180;5.646;2023-05-15T04:36:33;11.10;99.90
22249;DHT22;67538;52.180;5.646;2023-05-15T04:39:00;11.10;99.90
22249;DHT22;67538;52.180;5.646;2023-05-15T04:41:27;11.10;99.90
22249;DHT22;67538;52.180;5.646;2023-05-15T04:43:55;11.10;99.90
22249;DHT22;67538;52.180;5.646;2023-05-15T04:46:23;11.10;99.90
22249;DHT22;67538;52.180;5.646;2023-05-15T04:48:51;11.10;99.90
22249;DHT22;67538;52.180;5.646;2023-05-15T04:51:18;11.10;99.90
22249;DHT22;67538;52.180;5.646;2023-05-15T04:53:45;11.10;99.90
22249;DHT22;67538;52.180;5.646;2023-05-15T04:56:12;11.10;99.90
22249;DHT22;67538;52.180;5.646;2023-05-15T04:58:39;11.20;99.90
22249;DHT22;67538;52.180;5.646;2023-05-15T05:01:06;11.20;99.90
22249;DHT22;67538;52.180;5.646;2023-05-15T05:03:34;11.20;99.90
22249;DHT22;67538;52.180;5.646;2023-05-15T05:06:01;11.20;99.90
22249;DHT22;67538;52.180;5.646;2023-05-15T05:08:28;11.10;99.90
22249;DHT22;67538;52.180;5.646;2023-05-15T05:10:56;11.10;99.90
22249;DHT22;67538;52.180;5.646;2023-05-15T05:13:23;11.10;99.90
22249;DHT22;67538;52.180;5.646;2023-05-15T05:15:50;11.10;99.90
22249;DHT22;67538;52.180;5.646;2023-05-15T05:18:17;11.20;99.90
22249;DHT22;67538;52.180;5.646;2023-05-15T05:20:45;11.20;99.90
22249;DHT22;67538;52.180;5.646;2023-05-15T05:23:12;11.20;99.90
22249;DHT22;67538;52.180;5.646;2023-05-15T05:25:40;11.20;99.90
22249;DHT22;67538;52.180;5.646;2023-05-15T05:28:07;11.20;99.90
22249;DHT22;67538;52.180;5.646;2023-05-15T05:30:34;11.20;99.90
22249;DHT22;67538;52.180;5.646;2023-05-15T05:33:01;11.20;99.90
22249;DHT22;67538;52.180;5.646;2023-05-15T05:35:29;11.20;99.90
22249;DHT22;67538;52.180;5.646;2023-05-15T05:37:57;11.20;99.90
22249;DHT22;67538;52.180;5.646;2023-05-15T05:40:24;11.20;99.90
22249;DHT22;67538;52.180;5.646;2023-05-15T05:42:51;11.30;99.90
22249;DHT22;67538;52.180;5.646;2023-05-15T05:45:18;11.30;99.90
22249;DHT22;67538;52.180;5.646;2023-05-15T05:47:45;11.30;99.90
22249;DHT22;67538;52.180;5.646;2023-05-15T05:50:12;11.30;99.90
22249;DHT22;67538;52.180;5.646;2023-05-15T05:52:39;11.50;99.90
22249;DHT22;67538;52.180;5.646;2023-05-15T05:55:08;11.70;99.90
22249;DHT22;67538;52.180;5.646;2023-05-15T05:57:35;11.90;99.90
22249;DHT22;67538;52.180;5.646;2023-05-15T06:00:03;11.90;99.90
22249;DHT22;67538;52.180;5.646;2023-05-15T06:02:34;11.80;99.90
22249;DHT22;67538;52.180;5.646;2023-05-15T06:05:01;11.90;99.90
22249;DHT22;67538;52.180;5.646;2023-05-15T06:07:28;11.90;99.90
22249;DHT22;67538;52.180;5.646;2023-05-15T06:09:55;12.00;99.90
22249;DHT22;67538;52.180;5.646;2023-05-15T06:12:24;12.00;99.90
22249;DHT22;67538;52.180;5.646;2023-05-15T06:14:52;12.10;99.90
22249;DHT22;67538;52.180;5.646;2023-05-15T06:17:19;12.20;99.90
22249;DHT22;67538;52.180;5.646;2023-05-15T06:19:46;12.10;99.90
22249;DHT22;67538;52.180;5.646;2023-05-15T06:22:13;12.10;99.90
22249;DHT22;67538;52.180;5.646;2023-05-15T06:24:40;12.10;99.90
22249;DHT22;67538;52.180;5.646;2023-05-15T06:27:07;12.10;99.90
22249;DHT22;67538;52.180;5.646;2023-05-15T06:29:36;12.20;99.90
22249;DHT22;67538;52.180;5.646;2023-05-15T06:32:03;12.30;99.90
22249;DHT22;67538;52.180;5.646;2023-05-15T06:34:31;12.50;99.90
22249;DHT22;67538;52.180;5.646;2023-05-15T06:36:58;12.60;99.90
22249;DHT22;67538;52.180;5.646;2023-05-15T06:39:25;12.70;99.90
22249;DHT22;67538;52.180;5.646;2023-05-15T06:41:52;12.70;99.90
22249;DHT22;67538;52.180;5.646;2023-05-15T06:44:23;12.80;99.90
22249;DHT22;67538;52.180;5.646;2023-05-15T06:46:52;12.80;99.90
22249;DHT22;67538;52.180;5.646;2023-05-15T06:49:19;12.80;99.90
22249;DHT22;67538;52.180;5.646;2023-05-15T06:51:46;13.00;99.90
22249;DHT22;67538;52.180;5.646;2023-05-15T06:54:13;13.30;99.90
22249;DHT22;67538;52.180;5.646;2023-05-15T06:56:40;13.60;99.90
22249;DHT22;67538;52.180;5.646;2023-05-15T06:59:07;13.70;99.90
22249;DHT22;67538;52.180;5.646;2023-05-15T07:01:34;14.00;99.90
22249;DHT22;67538;52.180;5.646;2023-05-15T07:04:03;14.30;99.90
22249;DHT22;67538;52.180;5.646;2023-05-15T07:06:30;14.80;99.90
22249;DHT22;67538;52.180;5.646;2023-05-15T07:08:57;15.30;99.90
22249;DHT22;67538;52.180;5.646;2023-05-15T07:11:24;15.60;99.90
22249;DHT22;67538;52.180;5.646;2023-05-15T07:13:51;15.50;99.90
22249;DHT22;67538;52.180;5.646;2023-05-15T07:16:18;15.50;99.90
22249;DHT22;67538;52.180;5.646;2023-05-15T07:18:45;15.60;99.90
22249;DHT22;67538;52.180;5.646;2023-05-15T07:21:14;15.80;99.90
22249;DHT22;67538;52.180;5.646;2023-05-15T07:23:41;15.90;99.90
22249;DHT22;67538;52.180;5.646;2023-05-15T07:26:08;17.90;99.90
22249;DHT22;67538;52.180;5.646;2023-05-15T07:28:35;19.20;99.90
22249;DHT22;67538;52.180;5.646;2023-05-15T07:31:02;18.70;99.90
22249;DHT22;67538;52.180;5.646;2023-05-15T07:33:29;17.80;99.90
22249;DHT22;67538;52.180;5.646;2023-05-15T07:35:56;17.50;99.90
22249;DHT22;67538;52.180;5.646;2023-05-15T07:38:25;17.10;99.90
22249;DHT22;67538;52.180;5.646;2023-05-15T07:40:51;16.60;99.90
22249;DHT22;67538;52.180;5.646;2023-05-15T07:43:19;16.30;99.90
22249;DHT22;67538;52.180;5.646;2023-05-15T07:45:46;16.30;99.90
22249;DHT22;67538;52.180;5.646;2023-05-15T07:48:13;16.20;99.90
22249;DHT22;67538;52.180;5.646;2023-05-15T07:50:41;16.00;99.90
22249;DHT22;67538;52.180;5.646;2023-05-15T07:53:08;15.80;99.90
22249;DHT22;67538;52.180;5.646;2023-05-15T07:55:37;15.60;99.90
22249;DHT22;67538;52.180;5.646;2023-05-15T07:58:04;15.40;99.90
22249;DHT22;67538;52.180;5.646;2023-05-15T08:00:31;15.30;99.90
22249;DHT22;67538;52.180;5.646;2023-05-15T08:02:58;15.40;99.90
22249;DHT22;67538;52.180;5.646;2023-05-15T08:05:25;15.60;99.90
22249;DHT22;67538;52.180;5.646;2023-05-15T08:07:53;15.50;99.90
22249;DHT22;67538;52.180;5.646;2023-05-15T08:10:20;15.50;99.90
22249;DHT22;67538;52.180;5.646;2023-05-15T08:12:49;15.40;99.90
22249;DHT22;67538;52.180;5.646;2023-05-15T08:15:16;15.50;99.90
22249;DHT22;67538;52.180;5.646;2023-05-15T08:17:43;15.70;99.90
22249;DHT22;67538;52.180;5.646;2023-05-15T08:20:11;16.00;99.90
22249;DHT22;67538;52.180;5.646;2023-05-15T08:22:38;16.00;99.90
22249;DHT22;67538;52.180;5.646;2023-05-15T08:25:06;16.30;99.90
22249;DHT22;67538;52.180;5.646;2023-05-15T08:27:33;16.50;99.90
22249;DHT22;67538;52.180;5.646;2023-05-15T08:30:02;16.50;99.90
22249;DHT22;67538;52.180;5.646;2023-05-15T08:32:29;16.60;99.90
22249;DHT22;67538;52.180;5.646;2023-05-15T08:34:56;16.50;99.90
22249;DHT22;67538;52.180;5.646;2023-05-15T08:37:23;16.50;99.90
22249;DHT22;67538;52.180;5.646;2023-05-15T08:39:50;16.50;99.90
22249;DHT22;67538;52.180;5.646;2023-05-15T08:42:20;16.50;99.90
22249;DHT22;67538;52.180;5.646;2023-05-15T08:44:50;16.50;99.90
22249;DHT22;67538;52.180;5.646;2023-05-15T08:47:19;16.90;99.90
22249;DHT22;67538;52.180;5.646;2023-05-15T08:49:58;16.90;99.90
22249;DHT22;67538;52.180;5.646;2023-05-15T08:52:29;16.80;99.90
22249;DHT22;67538;52.180;5.646;2023-05-15T08:54:58;17.20;99.90
22249;DHT22;67538;52.180;5.646;2023-05-15T08:57:26;17.50;99.90
22249;DHT22;67538;52.180;5.646;2023-05-15T08:59:54;17.70;99.90
22249;DHT22;67538;52.180;5.646;2023-05-15T09:02:23;17.80;99.90
22249;DHT22;67538;52.180;5.646;2023-05-15T09:04:51;17.90;99.90
22249;DHT22;67538;52.180;5.646;2023-05-15T09:07:19;17.90;99.90
22249;DHT22;67538;52.180;5.646;2023-05-15T09:09:46;17.40;99.90
22249;DHT22;67538;52.180;5.646;2023-05-15T09:12:14;17.30;99.90
22249;DHT22;67538;52.180;5.646;2023-05-15T09:14:41;17.00;99.90
22249;DHT22;67538;52.180;5.646;2023-05-15T09:17:09;16.90;99.90
22249;DHT22;67538;52.180;5.646;2023-05-15T09:19:39;16.80;99.90
22249;DHT22;67538;52.180;5.646;2023-05-15T09:22:15;16.70;99.90
22249;DHT22;67538;52.180;5.646;2023-05-15T09:24:43;16.60;99.90
22249;DHT22;67538;52.180;5.646;2023-05-15T09:27:12;16.50;99.90
22249;DHT22;67538;52.180;5.646;2023-05-15T09:29:40;16.50;99.90
22249;DHT22;67538;52.180;5.646;2023-05-15T09:32:08;16.40;99.90
22249;DHT22;67538;52.180;5.646;2023-05-15T09:34:38;16.30;99.90
22249;DHT22;67538;52.180;5.646;2023-05-15T09:37:06;16.40;99.90
22249;DHT22;67538;52.180;5.646;2023-05-15T09:39:39;16.40;99.90
22249;DHT22;67538;52.180;5.646;2023-05-15T09:42:07;16.40;99.90
22249;DHT22;67538;52.180;5.646;2023-05-15T09:44:38;16.30;99.90
22249;DHT22;67538;52.180;5.646;2023-05-15T09:47:07;16.30;99.90
22249;DHT22;67538;52.180;5.646;2023-05-15T09:49:35;16.20;99.90
22249;DHT22;67538;52.180;5.646;2023-05-15T09:52:07;16.10;99.90
22249;DHT22;67538;52.180;5.646;2023-05-15T09:54:35;16.00;99.90
22249;DHT22;67538;52.180;5.646;2023-05-15T09:57:06;16.30;99.90
22249;DHT22;67538;52.180;5.646;2023-05-15T09:59:34;16.70;99.90
22249;DHT22;67538;52.180;5.646;2023-05-15T10:02:01;16.90;99.90
22249;DHT22;67538;52.180;5.646;2023-05-15T10:04:33;16.80;99.90
22249;DHT22;67538;52.180;5.646;2023-05-15T10:07:02;16.70;99.90
22249;DHT22;67538;52.180;5.646;2023-05-15T10:09:33;16.60;99.90
22249;DHT22;67538;52.180;5.646;2023-05-15T10:12:00;16.50;99.90
22249;DHT22;67538;52.180;5.646;2023-05-15T10:14:28;16.50;99.90
22249;DHT22;67538;52.180;5.646;2023-05-15T10:16:56;16.40;99.90
22249;DHT22;67538;52.180;5.646;2023-05-15T10:19:24;16.20;99.90
22249;DHT22;67538;52.180;5.646;2023-05-15T10:21:53;16.00;99.90
22249;DHT22;67538;52.180;5.646;2023-05-15T10:24:23;15.90;99.90
22249;DHT22;67538;52.180;5.646;2023-05-15T10:26:52;15.90;99.90
22249;DHT22;67538;52.180;5.646;2023-05-15T10:29:21;15.90;99.90
22249;DHT22;67538;52.180;5.646;2023-05-15T10:31:50;15.90;99.90
22249;DHT22;67538;52.180;5.646;2023-05-15T10:34:18;15.90;99.90
22249;DHT22;67538;52.180;5.646;2023-05-15T10:36:48;15.90;99.90
22249;DHT22;67538;52.180;5.646;2023-05-15T10:39:16;16.00;99.90
22249;DHT22;67538;52.180;5.646;2023-05-15T10:41:45;16.00;99.90
22249;DHT22;67538;52.180;5.646;2023-05-15T10:44:13;15.90;99.90
22249;DHT22;67538;52.180;5.646;2023-05-15T10:46:41;15.90;99.90
22249;DHT22;67538;52.180;5.646;2023-05-15T10:49:09;15.70;99.90
22249;DHT22;67538;52.180;5.646;2023-05-15T10:51:36;15.60;99.90
22249;DHT22;67538;52.180;5.646;2023-05-15T10:54:05;15.40;99.90
22249;DHT22;67538;52.180;5.646;2023-05-15T10:56:32;15.40;99.90
22249;DHT22;67538;52.180;5.646;2023-05-15T10:59:06;15.30;99.90
22249;DHT22;67538;52.180;5.646;2023-05-15T11:01:35;15.40;99.90
22249;DHT22;67538;52.180;5.646;2023-05-15T11:04:10;15.40;99.90
22249;DHT22;67538;52.180;5.646;2023-05-15T11:06:38;15.40;99.90
22249;DHT22;67538;52.180;5.646;2023-05-15T11:09:34;15.30;99.90
22249;DHT22;67538;52.180;5.646;2023-05-15T11:12:02;15.30;99.90
22249;DHT22;67538;52.180;5.646;2023-05-15T11:14:33;15.20;99.90
22249;DHT22;67538;52.180;5.646;2023-05-15T11:17:02;15.20;99.90
22249;DHT22;67538;52.180;5.646;2023-05-15T11:19:54;15.10;99.90
22249;DHT22;67538;52.180;5.646;2023-05-15T11:22:28;15.10;99.90
22249;DHT22;67538;52.180;5.646;2023-05-15T11:24:58;15.10;99.90
22249;DHT22;67538;52.180;5.646;2023-05-15T11:27:28;15.20;99.90
22249;DHT22;67538;52.180;5.646;2023-05-15T11:30:16;15.20;99.90
22249;DHT22;67538;52.180;5.646;2023-05-15T11:32:50;15.20;99.90
22249;DHT22;67538;52.180;5.646;2023-05-15T11:35:20;15.30;99.90
22249;DHT22;67538;52.180;5.646;2023-05-15T11:37:48;15.30;99.90
22249;DHT22;67538;52.180;5.646;2023-05-15T11:40:21;15.20;99.90
22249;DHT22;67538;52.180;5.646;2023-05-15T11:42:59;15.20;99.90
22249;DHT22;67538;52.180;5.646;2023-05-15T11:45:29;15.20;99.90
22249;DHT22;67538;52.180;5.646;2023-05-15T11:47:58;15.20;99.90
22249;DHT22;67538;52.180;5.646;2023-05-15T11:50:26;15.20;99.90
22249;DHT22;67538;52.180;5.646;2023-05-15T11:52:53;15.20;99.90
22249;DHT22;67538;52.180;5.646;2023-05-15T11:55:21;15.20;99.90
22249;DHT22;67538;52.180;5.646;2023-05-15T11:57:48;15.20;99.90
22249;DHT22;67538;52.180;5.646;2023-05-15T12:00:16;15.20;99.90
22249;DHT22;67538;52.180;5.646;2023-05-15T12:02:45;15.10;99.90
22249;DHT22;67538;52.180;5.646;2023-05-15T12:05:12;15.10;99.90
22249;DHT22;67538;52.180;5.646;2023-05-15T12:07:42;15.10;99.90
22249;DHT22;67538;52.180;5.646;2023-05-15T12:10:10;15.00;99.90
22249;DHT22;67538;52.180;5.646;2023-05-15T12:12:38;15.00;99.90
22249;DHT22;67538;52.180;5.646;2023-05-15T12:15:08;15.10;99.90
22249;DHT22;67538;52.180;5.646;2023-05-15T12:17:37;15.10;99.90
22249;DHT22;67538;52.180;5.646;2023-05-15T12:20:11;15.10;99.90
22249;DHT22;67538;52.180;5.646;2023-05-15T12:22:38;15.20;99.90
22249;DHT22;67538;52.180;5.646;2023-05-15T12:25:07;15.10;99.90
22249;DHT22;67538;52.180;5.646;2023-05-15T12:27:34;15.10;99.90
22249;DHT22;67538;52.180;5.646;2023-05-15T12:30:03;15.10;99.90
22249;DHT22;67538;52.180;5.646;2023-05-15T12:32:31;15.20;99.90
22249;DHT22;67538;52.180;5.646;2023-05-15T12:34:58;15.30;99.90
22249;DHT22;67538;52.180;5.646;2023-05-15T12:37:29;15.30;99.90
22249;DHT22;67538;52.180;5.646;2023-05-15T12:39:59;15.40;99.90
22249;DHT22;67538;52.180;5.646;2023-05-15T12:42:27;15.30;99.90
22249;DHT22;67538;52.180;5.646;2023-05-15T12:44:55;15.40;99.90
22249;DHT22;67538;52.180;5.646;2023-05-15T12:47:23;15.40;99.90
22249;DHT22;67538;52.180;5.646;2023-05-15T12:49:53;15.40;99.90
22249;DHT22;67538;52.180;5.646;2023-05-15T12:52:20;15.50;99.90
22249;DHT22;67538;52.180;5.646;2023-05-15T12:54:49;15.50;99.90
22249;DHT22;67538;52.180;5.646;2023-05-15T12:57:17;15.60;99.90
22249;DHT22;67538;52.180;5.646;2023-05-15T12:59:44;15.60;99.90
22249;DHT22;67538;52.180;5.646;2023-05-15T13:02:11;15.80;99.90
22249;DHT22;67538;52.180;5.646;2023-05-15T13:04:39;16.10;99.90
22249;DHT22;67538;52.180;5.646;2023-05-15T13:07:06;16.30;99.90
22249;DHT22;67538;52.180;5.646;2023-05-15T13:09:33;16.50;99.90
22249;DHT22;67538;52.180;5.646;2023-05-15T13:12:05;16.60;99.90
22249;DHT22;67538;52.180;5.646;2023-05-15T13:14:32;16.60;99.90
22249;DHT22;67538;52.180;5.646;2023-05-15T13:17:00;16.50;99.90
22249;DHT22;67538;52.180;5.646;2023-05-15T13:19:28;16.50;99.90
22249;DHT22;67538;52.180;5.646;2023-05-15T13:21:55;16.50;99.90
22249;DHT22;67538;52.180;5.646;2023-05-15T13:24:22;16.50;99.90
22249;DHT22;67538;52.180;5.646;2023-05-15T13:26:50;16.60;99.90
22249;DHT22;67538;52.180;5.646;2023-05-15T13:29:19;16.50;99.90
22249;DHT22;67538;52.180;5.646;2023-05-15T13:31:46;16.50;99.90
22249;DHT22;67538;52.180;5.646;2023-05-15T13:34:13;16.50;99.90
22249;DHT22;67538;52.180;5.646;2023-05-15T13:36:40;16.50;99.90
22249;DHT22;67538;52.180;5.646;2023-05-15T13:39:07;16.50;99.90
22249;DHT22;67538;52.180;5.646;2023-05-15T13:41:36;16.50;99.90
22249;DHT22;67538;52.180;5.646;2023-05-15T13:44:03;16.50;99.90
22249;DHT22;67538;52.180;5.646;2023-05-15T13:46:32;16.60;99.90
22249;DHT22;67538;52.180;5.646;2023-05-15T13:48:59;16.50;99.90
22249;DHT22;67538;52.180;5.646;2023-05-15T13:51:26;16.50;99.90
22249;DHT22;67538;52.180;5.646;2023-05-15T13:53:53;16.40;99.90
22249;DHT22;67538;52.180;5.646;2023-05-15T13:56:20;16.40;99.90
22249;DHT22;67538;52.180;5.646;2023-05-15T13:58:47;16.40;99.90
22249;DHT22;67538;52.180;5.646;2023-05-15T14:01:14;16.40;99.90
22249;DHT22;67538;52.180;5.646;2023-05-15T14:03:43;16.60;99.90
22249;DHT22;67538;52.180;5.646;2023-05-15T14:06:10;16.80;99.90
22249;DHT22;67538;52.180;5.646;2023-05-15T14:08:37;17.20;99.90
22249;DHT22;67538;52.180;5.646;2023-05-15T14:11:04;17.30;99.90
22249;DHT22;67538;52.180;5.646;2023-05-15T14:13:32;17.20;99.90
22249;DHT22;67538;52.180;5.646;2023-05-15T14:15:59;17.10;99.90
22249;DHT22;67538;52.180;5.646;2023-05-15T14:18:26;17.00;99.90
22249;DHT22;67538;52.180;5.646;2023-05-15T14:20:55;17.00;99.90
22249;DHT22;67538;52.180;5.646;2023-05-15T14:23:22;17.20;99.90
22249;DHT22;67538;52.180;5.646;2023-05-15T14:25:49;17.40;99.90
22249;DHT22;67538;52.180;5.646;2023-05-15T14:28:16;17.20;99.90
22249;DHT22;67538;52.180;5.646;2023-05-15T14:30:43;17.10;99.90
22249;DHT22;67538;52.180;5.646;2023-05-15T14:33:10;16.90;99.90
22249;DHT22;67538;52.180;5.646;2023-05-15T14:35:37;16.70;99.90
22249;DHT22;67538;52.180;5.646;2023-05-15T14:38:05;16.50;99.90
22249;DHT22;67538;52.180;5.646;2023-05-15T14:40:32;16.30;99.90
22249;DHT22;67538;52.180;5.646;2023-05-15T14:42:59;16.20;99.90
22249;DHT22;67538;52.180;5.646;2023-05-15T14:45:26;16.00;99.90
22249;DHT22;67538;52.180;5.646;2023-05-15T14:47:53;15.80;99.90
22249;DHT22;67538;52.180;5.646;2023-05-15T14:50:20;15.80;99.90
22249;DHT22;67538;52.180;5.646;2023-05-15T14:52:47;15.70;99.90
22249;DHT22;67538;52.180;5.646;2023-05-15T14:55:18;15.80;99.90
22249;DHT22;67538;52.180;5.646;2023-05-15T14:57:46;15.90;99.90
22249;DHT22;67538;52.180;5.646;2023-05-15T15:00:15;15.90;99.90
22249;DHT22;67538;52.180;5.646;2023-05-15T15:02:42;15.90;99.90
22249;DHT22;67538;52.180;5.646;2023-05-15T15:05:09;16.10;99.90
22249;DHT22;67538;52.180;5.646;2023-05-15T15:08:01;16.30;99.90
22249;DHT22;67538;52.180;5.646;2023-05-15T15:10:31;16.30;99.90
22249;DHT22;67538;52.180;5.646;2023-05-15T15:12:59;16.20;99.90
22249;DHT22;67538;52.180;5.646;2023-05-15T15:15:27;16.30;99.90
22249;DHT22;67538;52.180;5.646;2023-05-15T15:17:54;16.10;99.90
22249;DHT22;67538;52.180;5.646;2023-05-15T15:20:23;15.90;99.90
22249;DHT22;67538;52.180;5.646;2023-05-15T15:22:51;15.60;99.90
22249;DHT22;67538;52.180;5.646;2023-05-15T15:25:18;15.40;99.90
22249;DHT22;67538;52.180;5.646;2023-05-15T15:27:47;15.30;99.90
22249;DHT22;67538;52.180;5.646;2023-05-15T15:30:14;15.20;99.90
22249;DHT22;67538;52.180;5.646;2023-05-15T15:32:42;15.10;99.90
22249;DHT22;67538;52.180;5.646;2023-05-15T15:35:10;15.10;99.90
22249;DHT22;67538;52.180;5.646;2023-05-15T15:37:37;15.10;99.90
22249;DHT22;67538;52.180;5.646;2023-05-15T15:40:05;15.00;99.90